CheckWX is a tool to help pilots better visualize weather data.  It is not intended as a substitute for an official pre-flight weather briefing.

23:32:44 UTC

EGQL TAF
RAF Leuchars Airport
St. Andrews, United Kingdom
TAF EGQL 041340Z 0415/0424 25010KT 9999 BKN045 TEMPO 0415/0421 6000 SHRA SCT012 BECMG 0421/0424 -RA BKN020 PROB40 TEMPO 0422/0424 2000 RADZ SCT004 BKN007

Jul-4@
15:00 UTC

Jul-4 @ 15:00 UTC

Jul-4@
21:00 UTC

Jul-4 @ 21:00 UTC

TAF EGQL 041340Z 0415/0424 25010KT 9999 BKN045

Expired

Wind
  • 250° at 10 KTS
Cloud Levels
  • Broken at 4,500' AGL

Jul-4@
15:00 UTC

Jul-4 @ 15:00 UTC

Jul-4@
21:00 UTC

Jul-4 @ 21:00 UTC

TEMPO 0415/0421 6000 SHRA SCT012

Expired

Conditions
Showers, Rain
Cloud Levels
  • Scattered at 1,200' AGL

Jul-4@
21:00 UTC

Jul-4 @ 21:00 UTC

Jul-5@
00:00 UTC

Jul-5 @ 00:00 UTC

BECMG 0421/0424 -RA BKN020

Becoming

Becoming Conditions expected by Sun, Jul 5, 2020 @ 00:00 UTC

Wind
  • 250° at 10 KTS
Conditions
Light Rain
Cloud Levels
  • Broken at 2,000' AGL

Jul-4@
22:00 UTC

Jul-4 @ 22:00 UTC

Jul-5@
00:00 UTC

Jul-5 @ 00:00 UTC

PROB40 TEMPO 0422/0424 2000 RADZ SCT004 BKN007

Temporary - 40% Likelihood

Temporary - 40% Likelihood during this time.

Conditions
Rain, Drizzle
Cloud Levels
  • Scattered at 400' AGL
  • Broken at 700' AGL